Time;durP1;ratioP1;P1;durP2;ratioP2;P2;SDS_P1;SDS_P2;PMS_P1;PMS_P2;Temp;Humidity;BMP_temperature;BMP_pressure;BME280_temperature;BME280_humidity;BME280_pressure;Samples;Min_cycle;Max_cycle;Signal;HPM_P1;HPM_P2
2021/12/02 00:02:09;;;;;;;32.80;23.13;;;;;;;5.86;52.04;99233.41;5032451;28;20057;-78
2021/12/02 00:04:37;;;;;;;36.07;26.33;;;;;;;5.83;52.09;99234.53;5032369;28;20025;-79
2021/12/02 00:07:04;;;;;;;35.60;25.67;;;;;;;5.62;52.03;99202.66;5032361;28;20041;-79
2021/12/02 00:09:31;;;;;;;40.40;28.63;;;;;;;5.35;52.40;99175.66;5031041;28;20592;-78
2021/12/02 00:11:56;;;;;;;38.83;26.87;;;;;;;5.14;52.62;99137.69;5032360;28;20414;-78
2021/12/02 00:14:25;;;;;;;34.77;25.67;;;;;;;5.72;52.58;99233.00;5032277;28;20029;-77
2021/12/02 00:22:10;;;;;;;36.97;25.07;;;;;;;5.72;53.07;99222.53;5032412;28;20040;-78
2021/12/02 00:24:38;;;;;;;34.57;26.30;;;;;;;5.77;53.09;99226.50;5032243;28;20438;-79
2021/12/02 00:27:05;;;;;;;37.07;26.10;;;;;;;5.51;52.93;99171.50;5031965;28;20036;-78
2021/12/02 00:29:33;;;;;;;36.73;24.47;;;;;;;5.83;52.96;99218.81;5030473;28;20036;-78
2021/12/02 00:32:02;;;;;;;36.57;27.37;;;;;;;5.88;52.73;99213.13;5030815;28;20083;-79
2021/12/02 00:34:29;;;;;;;42.70;29.47;;;;;;;5.91;52.65;99221.53;5031995;28;20056;-79
2021/12/02 00:36:56;;;;;;;48.80;33.77;;;;;;;5.81;52.79;99214.72;5031551;28;20033;-78
2021/12/02 00:39:22;;;;;;;50.03;34.20;;;;;;;5.64;52.65;99179.75;5031664;28;20030;-78
2021/12/02 00:41:48;;;;;;;55.50;36.83;;;;;;;5.75;53.04;99193.41;5031661;28;20075;-79
2021/12/02 00:44:15;;;;;;;59.47;37.23;;;;;;;5.75;52.76;99185.56;5031531;28;20017;-79
2021/12/02 00:46:43;;;;;;;52.60;34.73;;;;;;;5.72;52.66;99193.72;5031797;28;20037;-79
2021/12/02 00:49:12;;;;;;;49.43;34.03;;;;;;;5.31;52.70;99134.25;5031711;28;20079;-78
2021/12/02 00:51:39;;;;;;;51.30;33.50;;;;;;;5.94;53.03;99226.44;5031634;28;20032;-79
2021/12/02 00:54:08;;;;;;;55.77;35.13;;;;;;;5.46;53.00;99176.38;5031456;28;20026;-78
2021/12/02 00:56:34;;;;;;;46.03;32.83;;;;;;;5.92;52.95;99238.88;5031627;28;20100;-79
2021/12/02 00:59:00;;;;;;;44.17;31.03;;;;;;;5.91;53.06;99239.88;5031407;28;20502;-78
2021/12/02 01:01:34;;;;;;;48.93;30.70;;;;;;;5.47;53.34;99191.94;5031469;28;20052;-78
2021/12/02 01:04:00;;;;;;;46.30;31.23;;;;;;;5.80;53.30;99234.03;5030136;28;20029;-79
2021/12/02 01:06:26;;;;;;;45.53;29.10;;;;;;;5.22;53.40;99141.22;5031488;28;20513;-78
2021/12/02 01:08:52;;;;;;;40.53;29.27;;;;;;;5.45;53.57;99196.50;5031346;28;20029;-78
2021/12/02 01:11:19;;;;;;;42.00;28.67;;;;;;;5.77;53.27;99242.22;5030332;28;20414;-78
2021/12/02 01:13:45;;;;;;;40.57;27.37;;;;;;;5.78;53.53;99239.44;5031579;28;20104;-78
2021/12/02 01:16:12;;;;;;;36.97;25.30;;;;;;;5.78;53.61;99247.28;5031622;28;20104;-79
2021/12/02 01:18:37;;;;;;;32.77;24.70;;;;;;;5.15;53.13;99131.50;5031326;28;20095;-78
2021/12/02 01:21:04;;;;;;;31.77;22.40;;;;;;;5.83;53.12;99234.53;5031307;28;20073;-79
2021/12/02 01:23:32;;;;;;;29.23;20.70;;;;;;;5.84;53.15;99233.56;5031644;28;20025;-78
2021/12/02 01:26:02;;;;;;;32.10;21.93;;;;;;;5.61;53.11;99204.47;5030182;28;20053;-78
2021/12/02 01:28:29;;;;;;;27.63;20.13;;;;;;;5.77;53.42;99229.94;5031013;28;20461;-79
2021/12/02 01:30:54;;;;;;;25.03;20.10;;;;;;;5.68;53.16;99223.00;5030186;28;20025;-79
2021/12/02 01:33:21;;;;;;;25.17;19.10;;;;;;;5.75;53.21;99224.03;5030338;28;20582;-78
2021/12/02 01:35:55;;;;;;;20.63;15.00;;;;;;;5.62;53.22;99221.00;5031323;28;20041;-79
2021/12/02 01:38:23;;;;;;;23.27;16.47;;;;;;;5.67;53.23;99237.06;5031900;28;20401;-78
2021/12/02 01:40:49;;;;;;;15.60;11.80;;;;;;;5.15;52.97;99155.03;5031329;28;20061;-79
2021/12/02 01:43:17;;;;;;;17.30;12.37;;;;;;;5.57;53.13;99226.69;5035054;28;20061;-78
2021/12/02 01:45:42;;;;;;;17.13;13.20;;;;;;;5.07;53.34;99140.94;5035484;28;20032;-78
2021/12/02 01:48:19;;;;;;;15.70;11.57;;;;;;;5.52;53.11;99228.97;5035065;28;20100;-78
2021/12/02 01:51:00;;;;;;;17.27;11.73;;;;;;;5.14;53.42;99163.88;5034976;28;20053;-78
2021/12/02 01:53:31;;;;;;;17.07;12.40;;;;;;;5.01;53.16;99145.94;5034865;28;20104;-79
2021/12/02 01:56:09;;;;;;;17.85;12.95;;;;;;;5.53;53.07;99221.91;5035059;28;20025;-78
2021/12/02 01:58:41;;;;;;;20.13;13.37;;;;;;;5.54;53.15;99215.72;5035202;28;20172;-78
2021/12/02 02:01:13;;;;;;;17.20;12.70;;;;;;;5.21;53.20;99189.31;5035204;28;20494;-78
2021/12/02 02:03:40;;;;;;;17.58;12.52;;;;;;;4.99;53.21;99126.97;5034832;28;20026;-79
2021/12/02 02:06:08;;;;;;;20.80;15.17;;;;;;;5.33;53.34;99182.84;5035146;28;20124;-78
2021/12/02 02:08:34;;;;;;;17.50;13.63;;;;;;;4.92;53.01;99123.31;5034628;28;20026;-78
2021/12/02 02:10:59;;;;;;;20.77;14.43;;;;;;;5.16;53.41;99152.28;5034634;28;20034;-78
2021/12/02 02:13:25;;;;;;;20.50;14.13;;;;;;;5.37;53.30;99201.69;5033366;28;20021;-79
2021/12/02 02:15:52;;;;;;;24.40;18.53;;;;;;;5.01;53.19;99149.38;5049759;28;20652;-78
2021/12/02 02:18:22;;;;;;;21.20;15.80;;;;;;;4.93;53.38;99157.19;5034497;28;20049;-79
2021/12/02 02:23:26;;;;;;;20.30;14.13;;;;;;;5.38;53.40;99224.28;5034780;28;20064;-79
2021/12/02 02:25:52;;;;;;;16.30;12.90;;;;;;;5.34;53.46;99218.53;5049822;28;20502;-79
2021/12/02 02:28:18;;;;;;;16.90;13.13;;;;;;;5.30;53.42;99227.66;5034416;28;20052;-79
2021/12/02 02:30:44;;;;;;;21.37;15.33;;;;;;;5.32;53.20;99222.28;5034399;28;20156;-79
2021/12/02 02:33:11;;;;;;;17.90;12.77;;;;;;;5.16;53.44;99195.94;5034240;28;20029;-79
2021/12/02 02:35:38;;;;;;;15.90;11.93;;;;;;;5.01;53.08;99166.88;5033099;28;20539;-79
2021/12/02 02:38:04;;;;;;;16.00;11.80;;;;;;;5.28;53.21;99219.13;5032789;28;20417;-79
2021/12/02 02:40:31;;;;;;;17.27;12.13;;;;;;;5.27;53.19;99219.28;5034156;28;20402;-79
2021/12/02 02:43:04;;;;;;;18.43;11.33;;;;;;;4.51;53.26;99104.69;5034229;28;20556;-79
2021/12/02 02:45:30;;;;;;;16.47;10.90;;;;;;;5.22;53.31;99224.97;5034149;28;20078;-79
2021/12/02 02:47:55;;;;;;;16.03;11.33;;;;;;;4.43;53.65;99110.63;5034338;28;20430;-79
2021/12/02 02:50:21;;;;;;;16.57;12.10;;;;;;;4.88;53.66;99174.28;5034328;28;20108;-79
2021/12/02 02:52:47;;;;;;;15.83;12.20;;;;;;;5.19;53.36;99224.44;5032910;28;20494;-79
2021/12/02 02:55:20;;;;;;;22.23;13.33;;;;;;;4.62;53.55;99133.22;5033942;28;20099;-79
2021/12/02 03:00:34;;;;;;;24.47;16.30;;;;;;;4.92;53.58;99207.84;5034241;28;20036;-79
2021/12/02 03:05:54;;;;;;;26.70;19.03;;;;;;;5.08;53.65;99215.84;5034238;28;20029;-79
2021/12/02 03:08:22;;;;;;;33.40;22.17;;;;;;;5.09;53.73;99214.88;5033736;28;20517;-79
2021/12/02 03:10:53;;;;;;;31.70;20.77;;;;;;;4.89;53.74;99192.47;5032163;28;20040;-79
2021/12/02 03:13:22;;;;;;;24.93;17.13;;;;;;;5.06;53.66;99211.72;5032134;28;20414;-79
2021/12/02 03:18:36;;;;;;;25.27;17.57;;;;;;;4.98;53.65;99209.88;5034039;28;20040;-79
2021/12/02 03:21:02;;;;;;;21.73;16.20;;;;;;;4.85;53.78;99212.03;5033737;28;20506;-78
2021/12/02 03:23:28;;;;;;;29.90;18.77;;;;;;;4.41;53.76;99140.50;5033604;28;20029;-79
2021/12/02 03:25:53;;;;;;;27.40;16.83;;;;;;;4.47;53.48;99156.44;5033598;28;20029;-79
2021/12/02 03:28:19;;;;;;;18.97;13.40;;;;;;;4.66;53.92;99191.25;5033475;28;20461;-79
2021/12/02 03:30:44;;;;;;;18.93;12.90;;;;;;;4.70;53.88;99201.28;5033492;28;20422;-79
2021/12/02 03:33:10;;;;;;;19.23;13.33;;;;;;;4.06;54.17;99120.38;5032201;28;20414;-79
2021/12/02 03:35:36;;;;;;;24.87;15.87;;;;;;;4.33;54.21;99170.00;5033292;28;20025;-79
2021/12/02 03:38:01;;;;;;;21.43;14.60;;;;;;;4.35;54.07;99186.34;5033166;28;20025;-79
2021/12/02 03:40:27;;;;;;;17.30;13.03;;;;;;;4.17;54.10;99159.38;5033314;28;20030;-79
2021/12/02 03:42:54;;;;;;;14.70;10.60;;;;;;;4.53;54.28;99236.06;5033443;28;20037;-79
2021/12/02 03:45:23;;;;;;;12.90;10.17;;;;;;;4.51;54.04;99237.19;5032954;28;20509;-79
2021/12/02 03:47:48;;;;;;;12.97;10.53;;;;;;;4.27;54.16;99229.88;5032800;28;20026;-79
2021/12/02 03:50:14;;;;;;;14.97;10.70;;;;;;;4.25;54.08;99190.81;5032771;28;20064;-79
2021/12/02 03:52:40;;;;;;;14.13;11.10;;;;;;;4.14;54.30;99180.56;5032953;28;20025;-79
2021/12/02 03:55:06;;;;;;;14.07;11.37;;;;;;;4.45;54.65;99234.16;5033021;28;20039;-79
2021/12/02 03:57:32;;;;;;;17.03;12.73;;;;;;;4.41;54.56;99226.75;5032981;28;20391;-79
2021/12/02 03:59:59;;;;;;;15.53;12.83;;;;;;;4.26;54.30;99202.09;5032994;28;20025;-79
2021/12/02 04:02:24;;;;;;;14.80;11.33;;;;;;;4.42;54.47;99218.78;5032810;28;20025;-79
2021/12/02 04:04:50;;;;;;;14.50;12.50;;;;;;;4.47;54.43;99232.25;5032514;28;20414;-79
2021/12/02 04:07:18;;;;;;;16.10;12.10;;;;;;;4.51;54.42;99239.81;5032913;28;20104;-79
2021/12/02 04:09:45;;;;;;;15.23;11.67;;;;;;;3.92;54.06;99147.00;5032587;28;20109;-79
2021/12/02 04:12:22;;;;;;;17.53;12.47;;;;;;;4.10;54.27;99190.50;5032833;28;20064;-79
2021/12/02 04:17:14;;;;;;;23.73;17.57;;;;;;;4.35;54.47;99259.53;5032781;28;20040;-78
2021/12/02 04:19:40;;;;;;;26.83;17.67;;;;;;;4.28;54.52;99244.59;5031156;28;20596;-79
2021/12/02 04:22:05;;;;;;;24.20;16.43;;;;;;;4.03;54.40;99209.50;5032510;28;20122;-79
2021/12/02 04:24:31;;;;;;;19.80;14.70;;;;;;;3.78;54.68;99183.06;5032553;28;20052;-79
2021/12/02 04:26:57;;;;;;;24.33;16.63;;;;;;;3.69;54.34;99163.03;5032143;28;20040;-80
2021/12/02 04:29:24;;;;;;;23.00;14.53;;;;;;;3.62;54.83;99155.91;5032066;28;20044;-79
2021/12/02 04:31:50;;;;;;;17.70;12.50;;;;;;;4.15;54.75;99248.34;5032197;28;20049;-79
2021/12/02 04:34:16;;;;;;;16.27;11.40;;;;;;;4.14;54.57;99245.88;5032604;28;20163;-79
2021/12/02 04:36:42;;;;;;;16.23;11.47;;;;;;;3.77;54.36;99198.88;5032164;28;20108;-79
2021/12/02 04:39:08;;;;;;;17.43;12.23;;;;;;;4.17;54.31;99263.88;5032042;28;20472;-78
2021/12/02 04:41:34;;;;;;;19.07;13.53;;;;;;;3.97;54.57;99234.41;5030914;28;20120;-79
2021/12/02 04:43:59;;;;;;;20.03;13.93;;;;;;;3.78;54.62;99208.38;5032235;28;20091;-79
2021/12/02 04:46:25;;;;;;;21.03;13.13;;;;;;;4.01;54.43;99240.16;5047392;28;20040;-79
2021/12/02 04:48:50;;;;;;;17.27;13.30;;;;;;;3.17;54.55;99113.06;5030642;28;20025;-79
2021/12/02 04:51:16;;;;;;;16.93;11.80;;;;;;;3.82;54.67;99225.41;5031992;28;20033;-79
2021/12/02 04:53:41;;;;;;;16.60;12.53;;;;;;;3.17;54.85;99136.53;5032059;28;20025;-79
2021/12/02 04:56:07;;;;;;;23.97;16.77;;;;;;;3.27;54.76;99153.97;5031926;28;20112;-79
2021/12/02 04:58:32;;;;;;;22.27;16.43;;;;;;;3.99;54.56;99270.84;5031886;28;20104;-79
2021/12/02 05:00:58;;;;;;;32.03;22.00;;;;;;;3.73;55.00;99245.34;5032077;28;20490;-79
2021/12/02 05:03:24;;;;;;;33.90;22.60;;;;;;;3.89;54.62;99285.72;5030822;28;20506;-79
2021/12/02 05:05:50;;;;;;;33.23;24.20;;;;;;;3.95;54.70;99269.47;5031926;28;20033;-79
2021/12/02 05:08:15;;;;;;;34.70;25.40;;;;;;;3.96;54.87;99271.13;5031718;28;20032;-79
2021/12/02 05:10:40;;;;;;;43.43;32.77;;;;;;;3.42;54.51;99200.34;5031671;28;20422;-79
2021/12/02 05:13:06;;;;;;;32.07;22.87;;;;;;;3.88;54.61;99279.66;5032211;28;20552;-79
2021/12/02 05:15:32;;;;;;;41.33;27.90;;;;;;;3.48;55.07;99222.44;5031162;28;20034;-79
2021/12/02 05:17:57;;;;;;;48.67;32.83;;;;;;;3.47;54.96;99220.78;5031144;28;20033;-79
2021/12/02 05:20:23;;;;;;;52.53;35.40;;;;;;;3.90;54.79;99276.91;5030649;28;20025;-79
2021/12/02 05:22:49;;;;;;;51.33;34.63;;;;;;;3.83;54.94;99263.59;5031945;28;20021;-79
2021/12/02 05:25:15;;;;;;;53.60;36.67;;;;;;;3.98;54.97;99282.25;5030661;28;20118;-79
2021/12/02 05:27:40;;;;;;;47.07;31.80;;;;;;;3.75;54.61;99242.59;5031866;28;20056;-79
2021/12/02 05:30:07;;;;;;;50.23;36.03;;;;;;;4.01;54.76;99276.75;5031777;28;20253;-78
2021/12/02 05:32:33;;;;;;;54.50;38.90;;;;;;;3.95;54.67;99261.63;5030295;28;20028;-79
2021/12/02 05:34:59;;;;;;;58.13;41.80;;;;;;;4.03;54.33;99277.41;5031327;28;20018;-78
2021/12/02 05:37:25;;;;;;;44.83;34.47;;;;;;;3.83;54.62;99259.19;5031577;28;20037;-78
2021/12/02 05:39:50;;;;;;;45.43;32.13;;;;;;;4.04;54.81;99281.69;5031688;28;20036;-78
2021/12/02 05:42:16;;;;;;;42.57;30.03;;;;;;;4.03;54.70;99299.13;5031682;28;20037;-79
2021/12/02 05:44:42;;;;;;;50.07;34.47;;;;;;;4.05;54.78;99293.78;5031485;28;20037;-78
2021/12/02 05:47:08;;;;;;;50.27;34.43;;;;;;;3.23;54.45;99139.56;5031555;28;20059;-78
2021/12/02 05:49:33;;;;;;;46.27;32.03;;;;;;;4.11;54.39;99286.19;5031495;28;20033;-79
2021/12/02 05:51:59;;;;;;;48.13;35.30;;;;;;;4.13;54.53;99286.03;5031120;28;20553;-78
2021/12/02 05:54:24;;;;;;;45.10;33.27;;;;;;;3.57;54.67;99198.09;5030056;28;20552;-79
2021/12/02 05:56:49;;;;;;;50.87;34.40;;;;;;;3.58;54.43;99196.31;5031385;28;20422;-79
2021/12/02 05:59:15;;;;;;;56.60;38.33;;;;;;;4.15;54.46;99291.94;5031495;28;20505;-78
2021/12/02 06:01:42;;;;;;;51.30;37.33;;;;;;;4.09;54.76;99289.91;5031267;28;20499;-78
2021/12/02 06:04:09;;;;;;;54.90;37.90;;;;;;;4.10;54.29;99295.00;5030831;28;20026;-79
2021/12/02 06:06:35;;;;;;;55.03;39.70;;;;;;;4.11;54.65;99301.88;5031240;28;20112;-79
2021/12/02 06:09:00;;;;;;;67.83;46.40;;;;;;;3.82;54.55;99256.72;5031029;28;20132;-79
2021/12/02 06:11:26;;;;;;;66.77;43.63;;;;;;;3.78;54.32;99232.69;5031181;28;20029;-79
2021/12/02 06:13:51;;;;;;;71.17;47.40;;;;;;;3.38;54.49;99169.44;5030059;28;20040;-78
2021/12/02 06:16:17;;;;;;;70.80;45.47;;;;;;;3.70;54.41;99216.06;5046819;28;20109;-78
2021/12/02 06:18:43;;;;;;;71.10;46.77;;;;;;;4.22;54.17;99293.03;5031397;28;20414;-79
2021/12/02 06:21:08;;;;;;;71.43;51.80;;;;;;;3.28;54.30;99151.22;5031238;28;20025;-78
2021/12/02 06:23:35;;;;;;;69.20;46.33;;;;;;;4.24;54.49;99291.09;5031360;28;20456;-78
2021/12/02 06:26:01;;;;;;;72.93;47.47;;;;;;;4.34;54.31;99281.41;5031353;28;20104;-78
2021/12/02 06:28:27;;;;;;;74.23;50.83;;;;;;;3.86;54.10;99205.88;5033376;28;20066;-79
2021/12/02 06:30:52;;;;;;;68.87;48.77;;;;;;;4.11;54.34;99254.00;5034886;28;20036;-78
2021/12/02 06:33:17;;;;;;;71.70;48.80;;;;;;;3.91;54.55;99189.75;5039633;28;20029;-78
2021/12/02 06:35:43;;;;;;;67.53;47.77;;;;;;;4.10;54.69;99242.75;5043566;28;20033;-78
2021/12/02 06:38:10;;;;;;;69.80;47.13;;;;;;;4.53;54.40;99284.94;5054448;28;20096;-78
2021/12/02 06:40:37;;;;;;;62.47;44.10;;;;;;;3.92;54.42;99184.38;5054130;28;20033;-78
2021/12/02 06:43:03;;;;;;;66.43;42.83;;;;;;;4.24;54.47;99215.31;5054440;28;20189;-78
2021/12/02 06:45:28;;;;;;;56.43;38.97;;;;;;;4.13;54.69;99218.13;5040955;28;20587;-78
2021/12/02 06:47:58;;;;;;;56.93;39.80;;;;;;;3.82;54.49;99141.84;5033804;28;20029;-78
2021/12/02 06:50:25;;;;;;;63.73;43.90;;;;;;;4.39;54.53;99220.84;5034435;28;20017;-79
2021/12/02 06:52:51;;;;;;;77.20;46.83;;;;;;;4.78;54.90;99269.34;5037365;28;20413;-78
2021/12/02 06:55:18;;;;;;;75.47;48.30;;;;;;;4.82;54.78;99274.28;5053885;28;20029;-78
2021/12/02 06:57:44;;;;;;;75.17;48.40;;;;;;;4.83;54.71;99276.75;5052307;28;20056;-78
2021/12/02 07:00:13;;;;;;;80.27;52.33;;;;;;;4.75;55.05;99260.97;5044310;28;20025;-78
2021/12/02 07:02:39;;;;;;;95.17;58.40;;;;;;;4.83;55.22;99274.16;5035372;28;20422;-78
2021/12/02 07:05:07;;;;;;;91.47;59.97;;;;;;;4.50;54.81;99222.47;5043854;28;20040;-78
2021/12/02 07:07:36;;;;;;;83.93;53.57;;;;;;;4.22;54.84;99175.44;5044739;28;20056;-78
2021/12/02 07:10:17;;;;;;;78.87;52.07;;;;;;;4.92;54.49;99270.63;5050194;28;20053;-78
2021/12/02 07:12:44;;;;;;;101.77;62.03;;;;;;;5.07;54.97;99286.63;5051424;28;20021;-77
2021/12/02 07:15:16;;;;;;;90.67;59.23;;;;;;;5.13;54.76;99275.56;5033272;28;20485;-78
2021/12/02 07:17:42;;;;;;;;;;;;;;;5.08;55.08;99277.81;5032680;28;20025;-78
2021/12/02 07:20:08;;;;;;;82.40;53.70;;;;;;;4.77;54.73;99199.72;5033672;28;19916;-78
2021/12/02 07:22:34;;;;;;;76.30;49.50;;;;;;;5.16;54.48;99243.88;5041809;28;20546;-79
2021/12/02 07:24:59;;;;;;;69.20;44.63;;;;;;;4.94;54.20;99218.16;5054410;28;20116;-81
2021/12/02 07:27:25;;;;;;;56.47;35.20;;;;;;;4.40;54.31;99113.56;5069162;28;20089;-80
2021/12/02 07:29:50;;;;;;;48.83;31.83;;;;;;;4.68;54.53;99148.31;5068898;28;20025;-81
2021/12/02 07:32:16;;;;;;;37.37;24.37;;;;;;;4.90;54.65;99193.28;5059882;28;20044;-80
2021/12/02 07:34:45;;;;;;;39.37;25.93;;;;;;;4.89;54.33;99187.22;5038605;28;20034;-80
2021/12/02 07:37:14;;;;;;;40.63;26.20;;;;;;;5.25;54.62;99219.44;5051200;28;20040;-81
2021/12/02 07:39:39;;;;;;;35.03;22.37;;;;;;;5.48;54.59;99260.84;5056104;28;20018;-80
2021/12/02 07:42:05;;;;;;;28.30;19.20;;;;;;;5.74;54.50;99272.97;5033701;28;20556;-81
2021/12/02 07:44:33;;;;;;;34.20;22.17;;;;;;;5.48;54.88;99227.63;5034358;28;20067;-81
2021/12/02 07:46:59;;;;;;;28.80;22.70;;;;;;;5.46;54.90;99220.91;5041840;28;20057;-81
2021/12/02 07:49:24;;;;;;;29.53;21.33;;;;;;;5.32;54.92;99198.72;5034976;28;20025;-81
2021/12/02 07:51:50;;;;;;;25.53;18.97;;;;;;;5.54;54.98;99227.00;5052583;28;20029;-80
2021/12/02 07:54:17;;;;;;;28.23;19.10;;;;;;;5.70;54.92;99258.53;5032270;28;20036;-82
2021/12/02 07:56:46;;;;;;;26.07;18.43;;;;;;;4.96;55.31;99153.44;5040883;28;20127;-82
2021/12/02 07:59:17;;;;;;;28.87;21.60;;;;;;;5.13;55.37;99175.31;5052567;28;20414;-82
2021/12/02 08:01:44;;;;;;;23.03;17.63;;;;;;;5.07;55.76;99169.72;5049387;28;20025;-81
2021/12/02 08:04:09;;;;;;;26.77;18.93;;;;;;;5.72;55.68;99247.91;5049022;28;20047;-82
2021/12/02 08:06:35;;;;;;;23.67;16.90;;;;;;;5.56;55.73;99219.00;5037307;28;20036;-82
2021/12/02 08:09:00;;;;;;;24.13;17.53;;;;;;;5.24;56.13;99162.00;5044398;28;20111;-82
2021/12/02 08:11:26;;;;;;;24.57;18.33;;;;;;;5.41;56.08;99172.44;5036749;28;20505;-82
2021/12/02 08:13:54;;;;;;;23.47;17.00;;;;;;;4.82;55.68;99050.19;5037923;28;20044;-84
2021/12/02 08:16:20;;;;;;;24.93;17.90;;;;;;;5.72;55.94;99187.66;5048580;28;20157;-83
2021/12/02 08:18:45;;;;;;;24.83;17.87;;;;;;;6.10;56.35;99224.91;5036430;28;20048;-84
2021/12/02 08:21:11;;;;;;;24.77;17.53;;;;;;;5.66;56.08;99154.25;5047345;28;20028;-83
2021/12/02 08:23:36;;;;;;;24.07;17.27;;;;;;;6.16;56.01;99205.94;5065017;28;20111;-80
2021/12/02 08:26:02;;;;;;;23.53;16.93;;;;;;;6.18;56.31;99207.41;5053406;28;20032;-79
2021/12/02 08:28:28;;;;;;;24.10;17.17;;;;;;;6.47;56.02;99225.38;5042460;28;20112;-80
2021/12/02 08:30:55;;;;;;;26.60;18.03;;;;;;;5.79;56.11;99102.22;5057200;28;20089;-80
2021/12/02 08:33:20;;;;;;;49.97;35.37;;;;;;;6.65;56.10;99220.84;5052450;28;20025;-80
2021/12/02 08:35:46;;;;;;;34.80;24.93;;;;;;;6.84;55.70;99232.88;5041595;28;20035;-80
2021/12/02 08:38:14;;;;;;;25.63;18.40;;;;;;;6.51;55.98;99168.19;5050496;28;20068;-80
2021/12/02 08:40:40;;;;;;;21.77;14.67;;;;;;;6.97;55.39;99233.22;5044870;28;20025;-79
2021/12/02 08:43:11;;;;;;;21.63;15.37;;;;;;;6.78;55.79;99196.78;5044207;28;20490;-79
2021/12/02 08:45:38;;;;;;;30.43;19.27;;;;;;;6.62;55.61;99162.63;5038465;28;20071;-79
2021/12/02 08:48:06;;;;;;;35.70;25.37;;;;;;;7.11;55.51;99213.38;5038397;28;20021;-79
2021/12/02 08:50:32;;;;;;;37.07;24.37;;;;;;;7.13;55.08;99205.31;5043558;28;20021;-79
2021/12/02 08:52:58;;;;;;;24.30;15.60;;;;;;;7.26;55.39;99205.66;5048097;28;20033;-80
2021/12/02 08:55:24;;;;;;;34.40;21.00;;;;;;;7.30;54.83;99201.72;5038488;28;20040;-80
2021/12/02 08:57:52;;;;;;;34.73;18.00;;;;;;;7.32;54.74;99197.09;5042260;28;20036;-79
2021/12/02 09:00:20;;;;;;;27.03;13.30;;;;;;;7.46;54.59;99217.47;5036185;28;20032;-78
2021/12/02 09:02:46;;;;;;;29.95;14.52;;;;;;;7.07;54.55;99133.31;5035738;28;20029;-79
2021/12/02 09:05:11;;;;;;;23.02;10.48;;;;;;;7.65;54.59;99190.03;5038665;28;20025;-79
2021/12/02 09:07:37;;;;;;;19.73;9.35;;;;;;;7.72;55.14;99185.72;5040575;28;20482;-79
2021/12/02 09:10:05;;;;;;;27.95;14.80;;;;;;;7.83;54.60;99181.94;5053194;28;20028;-79
2021/12/02 09:12:31;;;;;;;20.67;11.40;;;;;;;7.93;54.41;99187.81;5046379;28;20033;-80
2021/12/02 09:14:56;;;;;;;20.00;9.63;;;;;;;7.70;54.10;99123.84;5030965;28;20491;-78
2021/12/02 09:17:22;;;;;;;15.07;8.27;;;;;;;7.28;53.84;99043.50;5039239;28;20032;-78
2021/12/02 09:19:48;;;;;;;16.50;7.80;;;;;;;8.14;53.75;99156.50;5053607;28;20025;-78
2021/12/02 09:22:14;;;;;;;13.98;8.20;;;;;;;8.24;53.78;99157.13;5046094;28;20026;-79
2021/12/02 09:24:39;;;;;;;18.40;8.52;;;;;;;7.90;53.77;99089.09;5050306;28;20421;-78
2021/12/02 09:27:05;;;;;;;12.05;8.43;;;;;;;8.39;53.70;99141.47;5068717;28;20025;-78
2021/12/02 09:29:31;;;;;;;12.55;8.18;;;;;;;8.27;53.05;99111.25;5053075;28;20420;-78
2021/12/02 09:31:57;;;;;;;16.67;9.20;;;;;;;8.56;52.93;99142.19;5050755;28;20028;-78
2021/12/02 09:34:22;;;;;;;17.48;9.57;;;;;;;8.60;53.17;99128.50;5050743;28;20025;-78
2021/12/02 09:36:49;;;;;;;16.52;8.82;;;;;;;8.48;52.78;99089.59;5048159;28;20025;-78
2021/12/02 09:39:15;;;;;;;14.43;9.65;;;;;;;8.82;52.61;99129.47;5032919;28;20029;-77
2021/12/02 09:41:43;;;;;;;15.68;8.98;;;;;;;8.53;52.71;99053.88;5046952;28;20025;-78
2021/12/02 09:44:10;;;;;;;24.17;10.60;;;;;;;9.05;52.46;99116.31;5033471;28;20029;-77
2021/12/02 09:46:38;;;;;;;17.15;11.50;;;;;;;8.72;52.00;99034.16;5032799;28;20037;-77
2021/12/02 09:49:04;;;;;;;25.00;12.05;;;;;;;9.19;52.29;99114.69;5046467;28;20051;-78
2021/12/02 09:51:36;;;;;;;16.33;11.10;;;;;;;9.03;52.04;99075.34;5040374;28;20421;-78
2021/12/02 09:54:11;;;;;;;17.00;12.38;;;;;;;8.78;51.69;99030.81;5029364;28;20540;-78
2021/12/02 09:56:38;;;;;;;23.20;12.98;;;;;;;9.42;51.95;99098.81;5029129;28;20041;-78
2021/12/02 09:59:12;;;;;;;19.88;10.70;;;;;;;9.49;51.89;99091.81;5032533;28;20017;-78
2021/12/02 10:01:45;;;;;;;17.35;9.88;;;;;;;9.43;51.64;99061.75;5044158;28;20094;-78
2021/12/02 10:04:12;;;;;;;13.73;9.05;;;;;;;9.71;51.95;99074.28;5042617;28;20028;-78
2021/12/02 10:06:40;;;;;;;20.90;11.30;;;;;;;9.79;51.63;99071.56;5033168;28;20104;-78
2021/12/02 10:09:38;;;;;;;16.17;10.60;;;;;;;9.92;51.50;99065.63;5038772;28;20034;-77
2021/12/02 10:12:11;;;;;;;17.58;10.27;;;;;;;9.56;51.42;99005.75;5033582;28;20150;-78
2021/12/02 10:14:42;;;;;;;14.15;10.38;;;;;;;9.97;51.48;99045.59;5038481;28;20419;-78
2021/12/02 10:17:23;;;;;;;16.20;10.38;;;;;;;9.95;51.83;99033.59;5047687;28;20033;-78
2021/12/02 10:19:59;;;;;;;19.67;12.43;;;;;;;9.25;51.87;98916.41;5035602;28;20021;-77
2021/12/02 10:22:24;;;;;;;14.88;11.00;;;;;;;9.48;51.51;98930.25;5036029;28;20272;-78
2021/12/02 10:24:50;;;;;;;11.77;8.50;;;;;;;9.91;51.81;98993.59;5038259;28;20396;-83
2021/12/02 10:27:15;;;;;;;30.33;22.23;;;;;;;9.75;52.12;98947.19;5036538;28;20477;-83
2021/12/02 10:29:42;;;;;;;21.85;17.73;;;;;;;9.61;52.18;98918.22;5038843;28;20021;-83
2021/12/02 10:32:16;;;;;;;17.38;9.73;;;;;;;9.93;51.39;98928.31;5075264;28;20548;-83
2021/12/02 10:34:52;;;;;;;18.10;12.30;;;;;;;10.70;52.12;99026.03;5042613;28;20025;-82
2021/12/02 10:37:23;;;;;;;22.65;13.52;;;;;;;10.77;51.38;99019.00;5045931;28;20563;-83
2021/12/02 10:40:19;;;;;;;16.50;10.88;;;;;;;10.72;51.76;99000.25;5044724;28;20036;-83
2021/12/02 10:42:47;;;;;;;11.82;7.90;;;;;;;10.85;51.90;99010.09;5043081;28;20040;-82
2021/12/02 10:45:25;;;;;;;18.17;10.00;;;;;;;10.73;51.74;98964.94;5052136;28;20029;-82
2021/12/02 10:47:53;;;;;;;17.50;11.45;;;;;;;9.94;52.20;98826.28;5033231;28;20021;-83
2021/12/02 10:50:19;;;;;;;14.88;9.57;;;;;;;10.85;51.93;98959.94;5057039;28;20035;-82
2021/12/02 10:52:45;;;;;;;9.50;7.15;;;;;;;10.95;51.90;98963.03;5055120;28;20428;-83
2021/12/02 10:55:22;;;;;;;13.63;9.95;;;;;;;11.20;51.87;98975.78;5042046;28;20036;-82
2021/12/02 10:57:54;;;;;;;13.57;8.43;;;;;;;10.85;51.81;98916.84;5055490;28;20140;-82
2021/12/02 11:00:25;;;;;;;10.25;5.88;;;;;;;10.70;51.56;98877.38;5032976;28;20029;-82
2021/12/02 11:02:53;;;;;;;9.00;5.63;;;;;;;11.48;51.60;98965.13;5061345;28;20036;-82
2021/12/02 11:05:21;;;;;;;5.35;3.60;;;;;;;11.73;51.41;98956.47;5052741;28;20116;-82
2021/12/02 11:07:54;;;;;;;9.15;6.88;;;;;;;11.87;50.92;98951.25;5051487;28;20025;-82
2021/12/02 11:10:20;;;;;;;9.65;7.03;;;;;;;11.28;50.98;98846.94;5041375;28;20029;-82
2021/12/02 11:12:48;;;;;;;4.70;3.42;;;;;;;11.38;50.31;98862.44;5045609;28;20022;-83
2021/12/02 11:15:19;;;;;;;3.40;2.78;;;;;;;12.20;49.59;98957.41;5074648;28;20028;-82
2021/12/02 11:17:49;;;;;;;3.85;2.70;;;;;;;12.34;49.25;98937.88;5071201;28;20025;-83
2021/12/02 11:20:24;;;;;;;2.65;2.10;;;;;;;12.45;48.91;98936.44;5061179;28;20048;-83
2021/12/02 11:22:55;;;;;;;3.85;2.40;;;;;;;12.15;48.26;98882.31;5052541;28;20029;-83
2021/12/02 11:25:21;;;;;;;3.22;2.13;;;;;;;11.81;48.07;98815.31;5042026;28;20033;-83
2021/12/02 11:27:49;;;;;;;2.75;2.20;;;;;;;12.56;47.76;98937.66;5036073;28;20515;-83
2021/12/02 11:30:20;;;;;;;3.35;1.70;;;;;;;12.45;47.76;98928.50;5040563;28;20036;-83
2021/12/02 11:33:05;;;;;;;3.88;2.40;;;;;;;12.55;47.53;98925.44;5046751;28;20036;-83
2021/12/02 11:35:35;;;;;;;3.03;2.22;;;;;;;12.55;47.62;98923.59;5049829;28;20033;-83
2021/12/02 11:38:19;;;;;;;5.68;2.60;;;;;;;12.55;47.79;98920.94;5046113;28;20493;-83
2021/12/02 11:40:47;;;;;;;4.75;3.15;;;;;;;12.52;47.57;98910.78;5035572;28;20061;-84
2021/12/02 11:43:16;;;;;;;3.33;1.92;;;;;;;12.21;47.94;98852.38;5039130;28;20029;-83
2021/12/02 11:45:47;;;;;;;4.00;2.80;;;;;;;12.38;48.02;98894.09;5043163;28;20087;-83
2021/12/02 11:48:15;;;;;;;4.80;3.10;;;;;;;12.13;48.21;98849.94;5047434;28;20050;-83